sensor_id;sensor_type;location;lat;lon;timestamp;P1;durP1;ratioP1;P2;durP2;ratioP2
32038;SDS011;18549;42.286;22.688;2023-06-14T00:01:48;11.35;;;4.03;;
32038;SDS011;18549;42.286;22.688;2023-06-14T00:04:15;9.43;;;3.67;;
32038;SDS011;18549;42.286;22.688;2023-06-14T00:06:43;5.78;;;3.42;;
32038;SDS011;18549;42.286;22.688;2023-06-14T00:09:11;4.78;;;3.35;;
32038;SDS011;18549;42.286;22.688;2023-06-14T00:11:39;6.57;;;3.42;;
32038;SDS011;18549;42.286;22.688;2023-06-14T00:14:08;9.93;;;3.40;;
32038;SDS011;18549;42.286;22.688;2023-06-14T00:16:35;6.80;;;3.55;;
32038;SDS011;18549;42.286;22.688;2023-06-14T00:19:04;12.07;;;3.75;;
32038;SDS011;18549;42.286;22.688;2023-06-14T00:21:31;9.13;;;3.62;;
32038;SDS011;18549;42.286;22.688;2023-06-14T00:24:00;7.62;;;3.58;;
32038;SDS011;18549;42.286;22.688;2023-06-14T00:26:27;4.65;;;3.03;;
32038;SDS011;18549;42.286;22.688;2023-06-14T00:28:55;3.95;;;3.40;;
32038;SDS011;18549;42.286;22.688;2023-06-14T00:31:24;17.02;;;3.90;;
32038;SDS011;18549;42.286;22.688;2023-06-14T00:33:51;4.80;;;3.75;;
32038;SDS011;18549;42.286;22.688;2023-06-14T00:36:19;7.32;;;4.35;;
32038;SDS011;18549;42.286;22.688;2023-06-14T00:38:46;13.70;;;3.80;;
32038;SDS011;18549;42.286;22.688;2023-06-14T00:41:13;6.28;;;3.42;;
32038;SDS011;18549;42.286;22.688;2023-06-14T00:43:41;6.22;;;3.65;;
32038;SDS011;18549;42.286;22.688;2023-06-14T00:46:08;4.78;;;3.62;;
32038;SDS011;18549;42.286;22.688;2023-06-14T00:48:37;6.32;;;2.70;;
32038;SDS011;18549;42.286;22.688;2023-06-14T00:51:06;11.60;;;3.42;;
32038;SDS011;18549;42.286;22.688;2023-06-14T00:53:34;4.60;;;3.15;;
32038;SDS011;18549;42.286;22.688;2023-06-14T00:56:01;5.00;;;3.22;;
32038;SDS011;18549;42.286;22.688;2023-06-14T00:58:29;4.65;;;3.75;;
32038;SDS011;18549;42.286;22.688;2023-06-14T01:00:57;7.35;;;3.58;;
32038;SDS011;18549;42.286;22.688;2023-06-14T01:03:24;9.10;;;3.47;;
32038;SDS011;18549;42.286;22.688;2023-06-14T01:05:56;7.72;;;3.22;;
32038;SDS011;18549;42.286;22.688;2023-06-14T01:08:31;5.68;;;3.22;;
32038;SDS011;18549;42.286;22.688;2023-06-14T01:11:10;14.05;;;3.50;;
32038;SDS011;18549;42.286;22.688;2023-06-14T01:13:41;11.30;;;3.20;;
32038;SDS011;18549;42.286;22.688;2023-06-14T01:16:12;3.92;;;2.65;;
32038;SDS011;18549;42.286;22.688;2023-06-14T01:18:40;10.73;;;3.30;;
32038;SDS011;18549;42.286;22.688;2023-06-14T01:21:22;17.58;;;3.55;;
32038;SDS011;18549;42.286;22.688;2023-06-14T01:23:51;4.68;;;3.25;;
32038;SDS011;18549;42.286;22.688;2023-06-14T01:26:20;3.25;;;2.83;;
32038;SDS011;18549;42.286;22.688;2023-06-14T01:28:47;6.82;;;3.28;;
32038;SDS011;18549;42.286;22.688;2023-06-14T01:31:18;4.47;;;3.40;;
32038;SDS011;18549;42.286;22.688;2023-06-14T01:33:48;7.80;;;3.03;;
32038;SDS011;18549;42.286;22.688;2023-06-14T01:36:17;10.13;;;2.87;;
32038;SDS011;18549;42.286;22.688;2023-06-14T01:38:46;9.75;;;3.12;;
32038;SDS011;18549;42.286;22.688;2023-06-14T01:41:16;6.25;;;3.25;;
32038;SDS011;18549;42.286;22.688;2023-06-14T01:43:45;6.25;;;3.42;;
32038;SDS011;18549;42.286;22.688;2023-06-14T01:46:14;4.70;;;2.95;;
32038;SDS011;18549;42.286;22.688;2023-06-14T01:48:43;5.28;;;2.67;;
32038;SDS011;18549;42.286;22.688;2023-06-14T01:51:10;6.28;;;2.87;;
32038;SDS011;18549;42.286;22.688;2023-06-14T01:53:37;9.88;;;3.53;;
32038;SDS011;18549;42.286;22.688;2023-06-14T01:56:05;6.47;;;3.20;;
32038;SDS011;18549;42.286;22.688;2023-06-14T01:58:34;6.00;;;3.15;;
32038;SDS011;18549;42.286;22.688;2023-06-14T02:01:03;9.10;;;3.40;;
32038;SDS011;18549;42.286;22.688;2023-06-14T02:03:30;7.35;;;3.17;;
32038;SDS011;18549;42.286;22.688;2023-06-14T02:05:58;7.35;;;2.97;;
32038;SDS011;18549;42.286;22.688;2023-06-14T02:08:25;4.10;;;3.00;;
32038;SDS011;18549;42.286;22.688;2023-06-14T02:10:52;6.05;;;2.80;;
32038;SDS011;18549;42.286;22.688;2023-06-14T02:13:19;4.47;;;3.45;;
32038;SDS011;18549;42.286;22.688;2023-06-14T02:15:48;3.05;;;2.30;;
32038;SDS011;18549;42.286;22.688;2023-06-14T02:18:19;5.37;;;2.87;;
32038;SDS011;18549;42.286;22.688;2023-06-14T02:20:47;7.78;;;3.25;;
32038;SDS011;18549;42.286;22.688;2023-06-14T02:23:14;4.85;;;2.97;;
32038;SDS011;18549;42.286;22.688;2023-06-14T02:25:42;7.65;;;3.55;;
32038;SDS011;18549;42.286;22.688;2023-06-14T02:28:10;5.07;;;2.83;;
32038;SDS011;18549;42.286;22.688;2023-06-14T02:30:37;9.93;;;3.47;;
32038;SDS011;18549;42.286;22.688;2023-06-14T02:33:07;3.12;;;2.30;;
32038;SDS011;18549;42.286;22.688;2023-06-14T02:35:37;3.40;;;3.00;;
32038;SDS011;18549;42.286;22.688;2023-06-14T02:38:05;6.53;;;2.95;;
32038;SDS011;18549;42.286;22.688;2023-06-14T02:40:32;4.12;;;3.12;;
32038;SDS011;18549;42.286;22.688;2023-06-14T02:42:59;3.87;;;3.33;;
32038;SDS011;18549;42.286;22.688;2023-06-14T02:45:27;8.30;;;3.58;;
32038;SDS011;18549;42.286;22.688;2023-06-14T02:47:54;10.98;;;3.58;;
32038;SDS011;18549;42.286;22.688;2023-06-14T02:50:23;2.80;;;2.42;;
32038;SDS011;18549;42.286;22.688;2023-06-14T02:52:51;5.62;;;3.37;;
32038;SDS011;18549;42.286;22.688;2023-06-14T02:55:21;5.95;;;3.72;;
32038;SDS011;18549;42.286;22.688;2023-06-14T02:57:48;4.40;;;3.40;;
32038;SDS011;18549;42.286;22.688;2023-06-14T03:00:15;8.05;;;4.03;;
32038;SDS011;18549;42.286;22.688;2023-06-14T03:02:44;6.30;;;3.53;;
32038;SDS011;18549;42.286;22.688;2023-06-14T03:05:11;7.65;;;3.17;;
32038;SDS011;18549;42.286;22.688;2023-06-14T03:07:40;4.47;;;3.35;;
32038;SDS011;18549;42.286;22.688;2023-06-14T03:10:10;6.28;;;3.37;;
32038;SDS011;18549;42.286;22.688;2023-06-14T03:12:38;8.25;;;3.28;;
32038;SDS011;18549;42.286;22.688;2023-06-14T03:15:06;8.88;;;3.37;;
32038;SDS011;18549;42.286;22.688;2023-06-14T03:17:34;6.55;;;3.55;;
32038;SDS011;18549;42.286;22.688;2023-06-14T03:20:04;7.62;;;4.00;;
32038;SDS011;18549;42.286;22.688;2023-06-14T03:22:33;7.43;;;3.42;;
32038;SDS011;18549;42.286;22.688;2023-06-14T03:25:05;3.95;;;3.22;;
32038;SDS011;18549;42.286;22.688;2023-06-14T03:27:35;6.32;;;2.85;;
32038;SDS011;18549;42.286;22.688;2023-06-14T03:30:03;4.87;;;3.47;;
32038;SDS011;18549;42.286;22.688;2023-06-14T03:32:32;7.00;;;3.58;;
32038;SDS011;18549;42.286;22.688;2023-06-14T03:35:02;17.87;;;4.03;;
32038;SDS011;18549;42.286;22.688;2023-06-14T03:37:30;10.95;;;3.80;;
32038;SDS011;18549;42.286;22.688;2023-06-14T03:39:59;11.98;;;5.55;;
32038;SDS011;18549;42.286;22.688;2023-06-14T03:42:36;7.82;;;5.20;;
32038;SDS011;18549;42.286;22.688;2023-06-14T03:45:06;13.57;;;4.70;;
32038;SDS011;18549;42.286;22.688;2023-06-14T03:47:35;15.63;;;5.07;;
32038;SDS011;18549;42.286;22.688;2023-06-14T03:50:03;8.23;;;4.40;;
32038;SDS011;18549;42.286;22.688;2023-06-14T03:52:31;7.03;;;4.78;;
32038;SDS011;18549;42.286;22.688;2023-06-14T03:54:59;5.25;;;4.28;;
32038;SDS011;18549;42.286;22.688;2023-06-14T03:57:29;8.60;;;4.47;;
32038;SDS011;18549;42.286;22.688;2023-06-14T03:59:58;11.00;;;4.47;;
32038;SDS011;18549;42.286;22.688;2023-06-14T04:02:25;12.18;;;5.25;;
32038;SDS011;18549;42.286;22.688;2023-06-14T04:04:54;6.85;;;4.30;;
32038;SDS011;18549;42.286;22.688;2023-06-14T04:07:21;7.60;;;4.35;;
32038;SDS011;18549;42.286;22.688;2023-06-14T04:09:48;11.55;;;4.65;;
32038;SDS011;18549;42.286;22.688;2023-06-14T04:12:16;6.80;;;3.40;;
32038;SDS011;18549;42.286;22.688;2023-06-14T04:14:43;4.82;;;3.10;;
32038;SDS011;18549;42.286;22.688;2023-06-14T04:17:12;7.80;;;2.60;;
32038;SDS011;18549;42.286;22.688;2023-06-14T04:19:39;5.07;;;3.03;;
32038;SDS011;18549;42.286;22.688;2023-06-14T04:22:07;4.97;;;2.60;;
32038;SDS011;18549;42.286;22.688;2023-06-14T04:24:36;5.75;;;2.92;;
32038;SDS011;18549;42.286;22.688;2023-06-14T04:27:03;4.60;;;3.08;;
32038;SDS011;18549;42.286;22.688;2023-06-14T04:29:32;6.18;;;3.50;;
32038;SDS011;18549;42.286;22.688;2023-06-14T04:31:59;8.80;;;3.67;;
32038;SDS011;18549;42.286;22.688;2023-06-14T04:34:28;5.40;;;3.50;;
32038;SDS011;18549;42.286;22.688;2023-06-14T04:36:59;12.43;;;4.32;;
32038;SDS011;18549;42.286;22.688;2023-06-14T04:39:26;3.97;;;3.45;;
32038;SDS011;18549;42.286;22.688;2023-06-14T04:41:54;9.70;;;3.83;;
32038;SDS011;18549;42.286;22.688;2023-06-14T04:44:22;3.95;;;3.42;;
32038;SDS011;18549;42.286;22.688;2023-06-14T04:46:55;3.90;;;3.42;;
32038;SDS011;18549;42.286;22.688;2023-06-14T04:49:24;7.07;;;3.30;;
32038;SDS011;18549;42.286;22.688;2023-06-14T04:51:54;4.75;;;3.42;;
32038;SDS011;18549;42.286;22.688;2023-06-14T04:54:24;7.57;;;3.53;;
32038;SDS011;18549;42.286;22.688;2023-06-14T04:56:51;4.90;;;3.33;;
32038;SDS011;18549;42.286;22.688;2023-06-14T04:59:20;4.37;;;3.97;;
32038;SDS011;18549;42.286;22.688;2023-06-14T05:01:48;5.50;;;3.62;;
32038;SDS011;18549;42.286;22.688;2023-06-14T05:04:15;7.70;;;4.30;;
32038;SDS011;18549;42.286;22.688;2023-06-14T05:06:43;10.90;;;3.22;;
32038;SDS011;18549;42.286;22.688;2023-06-14T05:09:14;7.82;;;4.22;;
32038;SDS011;18549;42.286;22.688;2023-06-14T05:11:42;4.68;;;3.75;;
32038;SDS011;18549;42.286;22.688;2023-06-14T05:14:10;9.10;;;4.30;;
32038;SDS011;18549;42.286;22.688;2023-06-14T05:16:37;4.95;;;3.78;;
32038;SDS011;18549;42.286;22.688;2023-06-14T05:19:05;6.53;;;3.58;;
32038;SDS011;18549;42.286;22.688;2023-06-14T05:21:34;6.53;;;3.60;;
32038;SDS011;18549;42.286;22.688;2023-06-14T05:24:02;7.47;;;3.58;;
32038;SDS011;18549;42.286;22.688;2023-06-14T05:26:31;6.22;;;3.72;;
32038;SDS011;18549;42.286;22.688;2023-06-14T05:28:59;4.53;;;3.40;;
32038;SDS011;18549;42.286;22.688;2023-06-14T05:31:27;7.03;;;3.03;;
32038;SDS011;18549;42.286;22.688;2023-06-14T05:33:54;20.67;;;3.75;;
32038;SDS011;18549;42.286;22.688;2023-06-14T05:36:22;4.72;;;3.22;;
32038;SDS011;18549;42.286;22.688;2023-06-14T05:38:50;6.30;;;3.72;;
32038;SDS011;18549;42.286;22.688;2023-06-14T05:41:22;4.22;;;3.42;;
32038;SDS011;18549;42.286;22.688;2023-06-14T05:43:52;7.82;;;3.30;;
32038;SDS011;18549;42.286;22.688;2023-06-14T05:46:20;5.65;;;3.90;;
32038;SDS011;18549;42.286;22.688;2023-06-14T05:48:50;9.82;;;6.00;;
32038;SDS011;18549;42.286;22.688;2023-06-14T05:51:18;11.15;;;6.87;;
32038;SDS011;18549;42.286;22.688;2023-06-14T05:53:45;5.93;;;3.90;;
32038;SDS011;18549;42.286;22.688;2023-06-14T05:56:13;5.37;;;3.75;;
32038;SDS011;18549;42.286;22.688;2023-06-14T05:58:40;12.57;;;3.80;;
32038;SDS011;18549;42.286;22.688;2023-06-14T06:01:09;6.63;;;3.97;;
32038;SDS011;18549;42.286;22.688;2023-06-14T06:03:38;9.45;;;3.50;;
32038;SDS011;18549;42.286;22.688;2023-06-14T06:06:05;8.48;;;4.35;;
32038;SDS011;18549;42.286;22.688;2023-06-14T06:08:33;14.23;;;4.78;;
32038;SDS011;18549;42.286;22.688;2023-06-14T06:11:00;10.55;;;3.47;;
32038;SDS011;18549;42.286;22.688;2023-06-14T06:13:28;15.10;;;5.57;;
32038;SDS011;18549;42.286;22.688;2023-06-14T06:15:55;7.37;;;4.85;;
32038;SDS011;18549;42.286;22.688;2023-06-14T06:18:24;7.45;;;3.35;;
32038;SDS011;18549;42.286;22.688;2023-06-14T06:20:51;11.73;;;4.25;;
32038;SDS011;18549;42.286;22.688;2023-06-14T06:23:19;11.52;;;6.00;;
32038;SDS011;18549;42.286;22.688;2023-06-14T06:25:46;16.02;;;4.30;;
32038;SDS011;18549;42.286;22.688;2023-06-14T06:28:14;5.12;;;3.60;;
32038;SDS011;18549;42.286;22.688;2023-06-14T06:30:41;6.18;;;3.95;;
32038;SDS011;18549;42.286;22.688;2023-06-14T06:33:08;10.23;;;4.55;;
32038;SDS011;18549;42.286;22.688;2023-06-14T06:35:38;5.68;;;3.50;;
32038;SDS011;18549;42.286;22.688;2023-06-14T06:38:06;7.75;;;4.10;;
32038;SDS011;18549;42.286;22.688;2023-06-14T06:40:34;8.80;;;3.75;;
32038;SDS011;18549;42.286;22.688;2023-06-14T06:43:01;7.22;;;4.70;;
32038;SDS011;18549;42.286;22.688;2023-06-14T06:45:29;5.12;;;4.50;;
32038;SDS011;18549;42.286;22.688;2023-06-14T06:47:56;4.78;;;3.58;;
32038;SDS011;18549;42.286;22.688;2023-06-14T06:50:24;4.68;;;4.12;;
32038;SDS011;18549;42.286;22.688;2023-06-14T06:52:53;7.90;;;4.10;;
32038;SDS011;18549;42.286;22.688;2023-06-14T06:55:21;4.43;;;3.58;;
32038;SDS011;18549;42.286;22.688;2023-06-14T06:57:48;6.78;;;4.28;;
32038;SDS011;18549;42.286;22.688;2023-06-14T07:00:18;6.18;;;5.32;;
32038;SDS011;18549;42.286;22.688;2023-06-14T07:02:46;6.60;;;4.28;;
32038;SDS011;18549;42.286;22.688;2023-06-14T07:05:13;4.78;;;3.80;;
32038;SDS011;18549;42.286;22.688;2023-06-14T07:07:41;7.10;;;4.90;;
32038;SDS011;18549;42.286;22.688;2023-06-14T07:10:10;7.12;;;4.78;;
32038;SDS011;18549;42.286;22.688;2023-06-14T07:12:37;6.07;;;5.07;;
32038;SDS011;18549;42.286;22.688;2023-06-14T07:15:05;4.95;;;4.40;;
32038;SDS011;18549;42.286;22.688;2023-06-14T07:17:34;10.98;;;5.25;;
32038;SDS011;18549;42.286;22.688;2023-06-14T07:20:02;6.05;;;4.62;;
32038;SDS011;18549;42.286;22.688;2023-06-14T07:22:33;5.85;;;5.22;;
32038;SDS011;18549;42.286;22.688;2023-06-14T07:25:00;6.18;;;5.25;;
32038;SDS011;18549;42.286;22.688;2023-06-14T07:27:31;6.47;;;4.55;;
32038;SDS011;18549;42.286;22.688;2023-06-14T07:29:59;12.16;;;5.24;;
32038;SDS011;18549;42.286;22.688;2023-06-14T07:32:26;5.47;;;4.80;;
32038;SDS011;18549;42.286;22.688;2023-06-14T07:34:53;7.53;;;5.07;;
32038;SDS011;18549;42.286;22.688;2023-06-14T07:37:21;5.97;;;4.68;;
32038;SDS011;18549;42.286;22.688;2023-06-14T07:39:48;6.22;;;5.15;;
32038;SDS011;18549;42.286;22.688;2023-06-14T07:42:15;6.90;;;5.72;;
32038;SDS011;18549;42.286;22.688;2023-06-14T07:44:44;5.57;;;4.93;;
32038;SDS011;18549;42.286;22.688;2023-06-14T07:47:12;9.90;;;6.97;;
32038;SDS011;18549;42.286;22.688;2023-06-14T07:49:39;8.38;;;6.28;;
32038;SDS011;18549;42.286;22.688;2023-06-14T07:52:07;6.93;;;5.78;;
32038;SDS011;18549;42.286;22.688;2023-06-14T07:54:34;7.25;;;6.55;;
32038;SDS011;18549;42.286;22.688;2023-06-14T07:57:02;9.35;;;5.80;;
32038;SDS011;18549;42.286;22.688;2023-06-14T07:59:29;7.25;;;6.55;;
32038;SDS011;18549;42.286;22.688;2023-06-14T08:01:58;10.57;;;7.78;;
32038;SDS011;18549;42.286;22.688;2023-06-14T08:04:25;9.75;;;7.53;;
32038;SDS011;18549;42.286;22.688;2023-06-14T08:06:53;7.07;;;6.35;;
32038;SDS011;18549;42.286;22.688;2023-06-14T08:09:20;7.30;;;6.53;;
32038;SDS011;18549;42.286;22.688;2023-06-14T08:11:48;10.13;;;6.80;;
32038;SDS011;18549;42.286;22.688;2023-06-14T08:14:15;8.70;;;6.95;;
32038;SDS011;18549;42.286;22.688;2023-06-14T08:16:42;10.13;;;7.57;;
32038;SDS011;18549;42.286;22.688;2023-06-14T08:19:11;7.37;;;6.50;;
32038;SDS011;18549;42.286;22.688;2023-06-14T08:21:39;10.52;;;6.47;;
32038;SDS011;18549;42.286;22.688;2023-06-14T08:24:06;8.52;;;6.55;;
32038;SDS011;18549;42.286;22.688;2023-06-14T08:26:34;8.48;;;6.68;;
32038;SDS011;18549;42.286;22.688;2023-06-14T08:29:01;9.93;;;7.03;;
32038;SDS011;18549;42.286;22.688;2023-06-14T08:31:29;9.52;;;6.65;;
32038;SDS011;18549;42.286;22.688;2023-06-14T08:33:57;8.18;;;6.32;;
32038;SDS011;18549;42.286;22.688;2023-06-14T08:36:25;7.93;;;7.12;;
32038;SDS011;18549;42.286;22.688;2023-06-14T08:38:53;8.55;;;6.80;;
32038;SDS011;18549;42.286;22.688;2023-06-14T08:41:21;11.15;;;6.30;;
32038;SDS011;18549;42.286;22.688;2023-06-14T08:43:50;7.05;;;6.35;;
32038;SDS011;18549;42.286;22.688;2023-06-14T08:46:17;9.60;;;6.85;;
32038;SDS011;18549;42.286;22.688;2023-06-14T08:48:48;10.25;;;7.65;;
32038;SDS011;18549;42.286;22.688;2023-06-14T08:51:17;8.87;;;6.63;;
32038;SDS011;18549;42.286;22.688;2023-06-14T08:53:49;8.05;;;6.78;;
32038;SDS011;18549;42.286;22.688;2023-06-14T08:56:23;14.27;;;7.35;;
32038;SDS011;18549;42.286;22.688;2023-06-14T08:58:53;8.10;;;6.40;;
32038;SDS011;18549;42.286;22.688;2023-06-14T09:01:21;7.87;;;6.40;;
32038;SDS011;18549;42.286;22.688;2023-06-14T09:03:49;7.78;;;6.97;;
32038;SDS011;18549;42.286;22.688;2023-06-14T09:06:17;9.02;;;6.95;;
32038;SDS011;18549;42.286;22.688;2023-06-14T09:08:49;8.88;;;7.40;;
32038;SDS011;18549;42.286;22.688;2023-06-14T09:11:18;9.15;;;6.95;;
32038;SDS011;18549;42.286;22.688;2023-06-14T09:13:46;14.82;;;7.75;;
32038;SDS011;18549;42.286;22.688;2023-06-14T09:16:14;10.88;;;7.12;;
32038;SDS011;18549;42.286;22.688;2023-06-14T09:18:43;8.85;;;7.95;;
32038;SDS011;18549;42.286;22.688;2023-06-14T09:21:13;7.47;;;6.78;;
32038;SDS011;18549;42.286;22.688;2023-06-14T09:23:41;8.30;;;7.32;;
32038;SDS011;18549;42.286;22.688;2023-06-14T09:26:11;7.68;;;6.87;;
32038;SDS011;18549;42.286;22.688;2023-06-14T09:28:43;7.60;;;6.80;;
32038;SDS011;18549;42.286;22.688;2023-06-14T09:31:11;16.15;;;7.03;;
32038;SDS011;18549;42.286;22.688;2023-06-14T09:33:41;10.98;;;7.75;;
32038;SDS011;18549;42.286;22.688;2023-06-14T09:36:14;12.40;;;7.18;;
32038;SDS011;18549;42.286;22.688;2023-06-14T09:38:43;8.27;;;6.57;;
32038;SDS011;18549;42.286;22.688;2023-06-14T09:41:21;9.95;;;7.37;;
32038;SDS011;18549;42.286;22.688;2023-06-14T09:43:57;10.50;;;7.30;;
32038;SDS011;18549;42.286;22.688;2023-06-14T09:46:26;11.88;;;6.70;;
32038;SDS011;18549;42.286;22.688;2023-06-14T09:48:54;9.63;;;7.57;;
32038;SDS011;18549;42.286;22.688;2023-06-14T09:51:22;9.40;;;6.62;;
32038;SDS011;18549;42.286;22.688;2023-06-14T09:53:50;10.07;;;8.00;;
32038;SDS011;18549;42.286;22.688;2023-06-14T09:56:22;9.68;;;6.43;;
32038;SDS011;18549;42.286;22.688;2023-06-14T09:58:55;7.50;;;6.03;;
32038;SDS011;18549;42.286;22.688;2023-06-14T10:01:24;8.82;;;7.18;;
32038;SDS011;18549;42.286;22.688;2023-06-14T10:03:54;8.32;;;7.12;;
32038;SDS011;18549;42.286;22.688;2023-06-14T10:06:25;11.27;;;8.30;;
32038;SDS011;18549;42.286;22.688;2023-06-14T10:08:56;11.40;;;7.57;;
32038;SDS011;18549;42.286;22.688;2023-06-14T10:11:26;10.68;;;7.25;;
32038;SDS011;18549;42.286;22.688;2023-06-14T10:13:54;11.25;;;8.00;;
32038;SDS011;18549;42.286;22.688;2023-06-14T10:16:24;8.70;;;7.82;;
32038;SDS011;18549;42.286;22.688;2023-06-14T10:19:00;7.32;;;6.50;;
32038;SDS011;18549;42.286;22.688;2023-06-14T10:21:32;10.95;;;7.80;;
32038;SDS011;18549;42.286;22.688;2023-06-14T10:24:06;8.93;;;7.25;;
32038;SDS011;18549;42.286;22.688;2023-06-14T10:26:41;12.00;;;7.35;;
32038;SDS011;18549;42.286;22.688;2023-06-14T10:29:17;9.93;;;8.07;;
32038;SDS011;18549;42.286;22.688;2023-06-14T10:31:45;8.63;;;7.07;;
32038;SDS011;18549;42.286;22.688;2023-06-14T10:34:21;7.50;;;6.72;;
32038;SDS011;18549;42.286;22.688;2023-06-14T10:39:38;9.00;;;6.30;;
32038;SDS011;18549;42.286;22.688;2023-06-14T10:42:09;9.40;;;7.32;;
32038;SDS011;18549;42.286;22.688;2023-06-14T10:44:40;7.85;;;6.80;;
32038;SDS011;18549;42.286;22.688;2023-06-14T10:47:09;12.20;;;7.30;;
32038;SDS011;18549;42.286;22.688;2023-06-14T10:49:44;6.78;;;6.07;;
32038;SDS011;18549;42.286;22.688;2023-06-14T10:52:16;6.70;;;6.00;;
32038;SDS011;18549;42.286;22.688;2023-06-14T10:57:48;23.38;;;7.62;;
32038;SDS011;18549;42.286;22.688;2023-06-14T11:00:18;16.75;;;9.25;;
32038;SDS011;18549;42.286;22.688;2023-06-14T11:05:51;9.45;;;7.00;;
32038;SDS011;18549;42.286;22.688;2023-06-14T11:11:24;11.85;;;8.25;;
32038;SDS011;18549;42.286;22.688;2023-06-14T11:13:59;10.88;;;8.77;;
32038;SDS011;18549;42.286;22.688;2023-06-14T11:16:28;9.75;;;8.75;;
32038;SDS011;18549;42.286;22.688;2023-06-14T11:18:59;11.48;;;7.57;;
32038;SDS011;18549;42.286;22.688;2023-06-14T11:21:28;6.57;;;5.45;;
32038;SDS011;18549;42.286;22.688;2023-06-14T11:23:58;6.57;;;5.57;;
32038;SDS011;18549;42.286;22.688;2023-06-14T11:26:25;6.53;;;5.00;;
32038;SDS011;18549;42.286;22.688;2023-06-14T11:28:57;6.28;;;5.22;;
32038;SDS011;18549;42.286;22.688;2023-06-14T11:31:27;11.55;;;6.28;;
32038;SDS011;18549;42.286;22.688;2023-06-14T11:33:55;5.60;;;4.78;;
32038;SDS011;18549;42.286;22.688;2023-06-14T11:36:23;4.93;;;4.20;;
32038;SDS011;18549;42.286;22.688;2023-06-14T11:38:57;8.60;;;4.78;;
32038;SDS011;18549;42.286;22.688;2023-06-14T11:41:32;12.18;;;5.05;;
32038;SDS011;18549;42.286;22.688;2023-06-14T11:44:00;7.87;;;3.95;;
32038;SDS011;18549;42.286;22.688;2023-06-14T11:46:31;3.90;;;2.62;;
32038;SDS011;18549;42.286;22.688;2023-06-14T11:48:59;4.07;;;2.85;;
32038;SDS011;18549;42.286;22.688;2023-06-14T11:51:29;10.45;;;3.92;;
32038;SDS011;18549;42.286;22.688;2023-06-14T11:54:08;8.02;;;4.20;;
32038;SDS011;18549;42.286;22.688;2023-06-14T11:56:36;9.10;;;4.20;;
32038;SDS011;18549;42.286;22.688;2023-06-14T11:59:04;6.18;;;4.00;;
32038;SDS011;18549;42.286;22.688;2023-06-14T12:01:36;5.72;;;3.67;;
32038;SDS011;18549;42.286;22.688;2023-06-14T12:04:05;5.60;;;3.58;;
32038;SDS011;18549;42.286;22.688;2023-06-14T12:06:32;5.70;;;3.20;;
32038;SDS011;18549;42.286;22.688;2023-06-14T12:09:03;3.00;;;2.70;;
32038;SDS011;18549;42.286;22.688;2023-06-14T12:11:32;6.35;;;3.25;;
32038;SDS011;18549;42.286;22.688;2023-06-14T12:14:03;4.15;;;3.35;;
32038;SDS011;18549;42.286;22.688;2023-06-14T12:16:31;12.77;;;4.05;;
32038;SDS011;18549;42.286;22.688;2023-06-14T12:19:07;13.48;;;4.90;;
32038;SDS011;18549;42.286;22.688;2023-06-14T12:21:37;10.80;;;5.53;;
32038;SDS011;18549;42.286;22.688;2023-06-14T12:24:05;4.53;;;3.40;;
32038;SDS011;18549;42.286;22.688;2023-06-14T12:26:33;4.70;;;3.55;;
32038;SDS011;18549;42.286;22.688;2023-06-14T12:29:04;4.47;;;3.03;;
32038;SDS011;18549;42.286;22.688;2023-06-14T12:31:33;6.18;;;3.78;;
32038;SDS011;18549;42.286;22.688;2023-06-14T12:34:02;7.32;;;4.72;;
32038;SDS011;18549;42.286;22.688;2023-06-14T12:36:30;13.98;;;6.37;;
32038;SDS011;18549;42.286;22.688;2023-06-14T12:38:57;9.73;;;5.37;;
32038;SDS011;18549;42.286;22.688;2023-06-14T12:41:25;7.30;;;5.53;;
32038;SDS011;18549;42.286;22.688;2023-06-14T12:43:53;8.77;;;5.72;;
32038;SDS011;18549;42.286;22.688;2023-06-14T12:46:20;8.57;;;5.25;;
32038;SDS011;18549;42.286;22.688;2023-06-14T12:48:48;13.35;;;5.68;;
32038;SDS011;18549;42.286;22.688;2023-06-14T12:51:16;7.60;;;5.57;;
32038;SDS011;18549;42.286;22.688;2023-06-14T12:53:44;9.73;;;6.35;;
32038;SDS011;18549;42.286;22.688;2023-06-14T12:56:11;7.70;;;6.55;;
32038;SDS011;18549;42.286;22.688;2023-06-14T12:58:38;7.57;;;5.87;;
32038;SDS011;18549;42.286;22.688;2023-06-14T13:01:08;6.85;;;5.68;;
32038;SDS011;18549;42.286;22.688;2023-06-14T13:03:35;6.70;;;5.97;;
32038;SDS011;18549;42.286;22.688;2023-06-14T13:06:03;8.75;;;5.72;;
32038;SDS011;18549;42.286;22.688;2023-06-14T13:08:32;11.07;;;6.15;;
32038;SDS011;18549;42.286;22.688;2023-06-14T13:10:59;10.32;;;6.20;;
32038;SDS011;18549;42.286;22.688;2023-06-14T13:13:27;8.95;;;5.22;;
32038;SDS011;18549;42.286;22.688;2023-06-14T13:15:54;7.20;;;6.22;;
32038;SDS011;18549;42.286;22.688;2023-06-14T13:18:21;6.60;;;5.90;;
32038;SDS011;18549;42.286;22.688;2023-06-14T13:20:49;8.30;;;5.85;;
32038;SDS011;18549;42.286;22.688;2023-06-14T13:23:16;6.72;;;6.03;;
32038;SDS011;18549;42.286;22.688;2023-06-14T13:25:45;9.82;;;6.05;;
32038;SDS011;18549;42.286;22.688;2023-06-14T13:28:14;8.18;;;5.72;;
32038;SDS011;18549;42.286;22.688;2023-06-14T13:30:42;7.37;;;6.10;;
32038;SDS011;18549;42.286;22.688;2023-06-14T13:33:10;9.65;;;6.43;;
32038;SDS011;18549;42.286;22.688;2023-06-14T13:35:37;12.70;;;5.93;;
32038;SDS011;18549;42.286;22.688;2023-06-14T13:38:04;7.22;;;5.68;;
32038;SDS011;18549;42.286;22.688;2023-06-14T13:40:32;6.15;;;5.37;;
32038;SDS011;18549;42.286;22.688;2023-06-14T13:43:01;6.80;;;5.40;;
32038;SDS011;18549;42.286;22.688;2023-06-14T13:45:28;6.80;;;5.85;;
32038;SDS011;18549;42.286;22.688;2023-06-14T13:47:55;13.43;;;6.97;;
32038;SDS011;18549;42.286;22.688;2023-06-14T13:50:23;6.78;;;6.15;;
32038;SDS011;18549;42.286;22.688;2023-06-14T13:52:50;7.90;;;6.40;;
32038;SDS011;18549;42.286;22.688;2023-06-14T13:55:17;12.20;;;6.10;;
32038;SDS011;18549;42.286;22.688;2023-06-14T13:57:45;8.73;;;6.87;;
32038;SDS011;18549;42.286;22.688;2023-06-14T14:00:14;6.80;;;6.15;;
32038;SDS011;18549;42.286;22.688;2023-06-14T14:02:42;6.65;;;6.03;;
32038;SDS011;18549;42.286;22.688;2023-06-14T14:05:10;6.85;;;5.95;;
32038;SDS011;18549;42.286;22.688;2023-06-14T14:07:37;6.60;;;5.95;;
32038;SDS011;18549;42.286;22.688;2023-06-14T14:10:05;9.75;;;6.37;;
32038;SDS011;18549;42.286;22.688;2023-06-14T14:12:33;7.65;;;5.90;;
32038;SDS011;18549;42.286;22.688;2023-06-14T14:15:01;7.43;;;6.22;;
32038;SDS011;18549;42.286;22.688;2023-06-14T14:17:30;10.25;;;5.68;;
32038;SDS011;18549;42.286;22.688;2023-06-14T14:19:58;6.82;;;5.93;;
32038;SDS011;18549;42.286;22.688;2023-06-14T14:22:25;10.13;;;5.53;;
32038;SDS011;18549;42.286;22.688;2023-06-14T14:24:53;7.87;;;6.30;;
32038;SDS011;18549;42.286;22.688;2023-06-14T14:27:20;6.47;;;5.50;;
32038;SDS011;18549;42.286;22.688;2023-06-14T14:29:49;7.25;;;5.22;;
32038;SDS011;18549;42.286;22.688;2023-06-14T14:32:17;7.75;;;5.97;;
32038;SDS011;18549;42.286;22.688;2023-06-14T14:34:46;10.40;;;4.95;;
32038;SDS011;18549;42.286;22.688;2023-06-14T14:37:14;5.35;;;4.85;;
32038;SDS011;18549;42.286;22.688;2023-06-14T14:39:41;5.93;;;5.05;;
32038;SDS011;18549;42.286;22.688;2023-06-14T14:42:10;6.85;;;5.47;;
32038;SDS011;18549;42.286;22.688;2023-06-14T14:44:39;6.65;;;5.45;;
32038;SDS011;18549;42.286;22.688;2023-06-14T14:47:07;6.05;;;5.45;;
32038;SDS011;18549;42.286;22.688;2023-06-14T14:49:34;6.25;;;5.65;;
32038;SDS011;18549;42.286;22.688;2023-06-14T14:52:03;6.62;;;4.90;;